LVBWN SAAR-SAAR
Flight info
| Callsign | LVBWN |
|---|---|
| Flight time | 0h 30m |
| Altitude | 5000 |
| Route | DCT ROS1400020 DCT IAC ILS Y 20 |
| Aircraft | B58T/L-SG/C |
Departure
| Time | 2026-04-22 00:12 |
|---|---|
| Airport | Rosario Islas Malvinas International Airport (SAAR) |
Arrival
| Time | 2026-04-22 00:42 |
|---|---|
| Airport | Rosario Islas Malvinas International Airport (SAAR) |
| Time | Latitude | Longitude | Altitude | Speed | Heading |
|---|---|---|---|---|---|
| 2026-04-21 23:47 | -32.91813 | -60.78197 | 90 ft | 0 kts | 21° |
| 2026-04-22 00:06 | -32.91794 | -60.78207 | 91 ft | 7 kts | 303° |
| 2026-04-22 00:06 | -32.91751 | -60.78254 | 90 ft | 12 kts | 336° |
| 2026-04-22 00:06 | -32.91686 | -60.78274 | 90 ft | 11 kts | 19° |
| 2026-04-22 00:07 | -32.91616 | -60.78242 | 90 ft | 11 kts | 20° |
| 2026-04-22 00:07 | -32.91517 | -60.78195 | 91 ft | 19 kts | 24° |
| 2026-04-22 00:07 | -32.91402 | -60.78178 | 90 ft | 16 kts | 323° |
| 2026-04-22 00:07 | -32.91316 | -60.78262 | 90 ft | 16 kts | 315° |
| 2026-04-22 00:08 | -32.91234 | -60.78338 | 90 ft | 15 kts | 320° |
| 2026-04-22 00:08 | -32.91156 | -60.78413 | 91 ft | 14 kts | 321° |
| 2026-04-22 00:08 | -32.91069 | -60.78485 | 93 ft | 18 kts | 328° |
| 2026-04-22 00:08 | -32.90923 | -60.78553 | 93 ft | 27 kts | 344° |
| 2026-04-22 00:09 | -32.90716 | -60.78548 | 91 ft | 33 kts | 11° |
| 2026-04-22 00:09 | -32.90475 | -60.78495 | 91 ft | 36 kts | 10° |
| 2026-04-22 00:09 | -32.90221 | -60.78430 | 89 ft | 39 kts | 11° |
| 2026-04-22 00:09 | -32.89948 | -60.78375 | 91 ft | 40 kts | 9° |
| 2026-04-22 00:10 | -32.89668 | -60.78310 | 92 ft | 42 kts | 9° |
| 2026-04-22 00:10 | -32.89392 | -60.78247 | 92 ft | 39 kts | 11° |
| 2026-04-22 00:10 | -32.89202 | -60.78201 | 94 ft | 7 kts | 301° |
| 2026-04-22 00:10 | -32.89216 | -60.78211 | 95 ft | 0 kts | 191° |
| 2026-04-22 00:11 | -32.89330 | -60.78236 | 93 ft | 57 kts | 191° |
| 2026-04-22 00:12 | -32.90007 | -60.78389 | 216 ft | 121 kts | 190° |
| 2026-04-22 00:12 | -32.90838 | -60.78557 | 823 ft | 124 kts | 190° |
| 2026-04-22 00:12 | -32.91676 | -60.78683 | 1487 ft | 120 kts | 188° |
| 2026-04-22 00:12 | -32.92522 | -60.78818 | 1957 ft | 124 kts | 186° |
| 2026-04-22 00:13 | -32.93380 | -60.78524 | 2228 ft | 143 kts | 142° |
| 2026-04-22 00:13 | -32.93836 | -60.77414 | 2536 ft | 157 kts | 110° |
| 2026-04-22 00:13 | -32.94056 | -60.76129 | 2863 ft | 157 kts | 105° |
| 2026-04-22 00:13 | -32.94188 | -60.74809 | 3137 ft | 164 kts | 101° |
| 2026-04-22 00:14 | -32.94300 | -60.73489 | 3629 ft | 154 kts | 100° |
| 2026-04-22 00:14 | -32.94512 | -60.72315 | 4194 ft | 138 kts | 123° |
| 2026-04-22 00:14 | -32.95106 | -60.71406 | 4615 ft | 143 kts | 133° |
| 2026-04-22 00:14 | -32.95759 | -60.70456 | 4854 ft | 159 kts | 132° |
| 2026-04-22 00:15 | -32.96517 | -60.69374 | 4846 ft | 176 kts | 134° |
| 2026-04-22 00:15 | -32.97336 | -60.68283 | 4977 ft | 178 kts | 135° |
| 2026-04-22 00:15 | -32.98168 | -60.67178 | 5076 ft | 182 kts | 135° |
| 2026-04-22 00:15 | -32.99029 | -60.66031 | 5104 ft | 187 kts | 134° |
| 2026-04-22 00:16 | -32.99833 | -60.64805 | 5138 ft | 191 kts | 129° |
| 2026-04-22 00:16 | -33.00595 | -60.63480 | 5143 ft | 194 kts | 127° |
| 2026-04-22 00:16 | -33.01370 | -60.62158 | 5164 ft | 195 kts | 128° |
| 2026-04-22 00:16 | -33.02158 | -60.60857 | 5199 ft | 194 kts | 133° |
| 2026-04-22 00:17 | -33.03039 | -60.59627 | 5228 ft | 194 kts | 135° |
| 2026-04-22 00:17 | -33.03934 | -60.58428 | 5160 ft | 198 kts | 136° |
| 2026-04-22 00:17 | -33.04872 | -60.57221 | 5120 ft | 197 kts | 139° |
| 2026-04-22 00:17 | -33.05917 | -60.56179 | 5130 ft | 195 kts | 146° |
| 2026-04-22 00:18 | -33.06912 | -60.55074 | 5145 ft | 196 kts | 136° |
| 2026-04-22 00:18 | -33.07826 | -60.53860 | 5155 ft | 196 kts | 135° |
| 2026-04-22 00:18 | -33.08693 | -60.52604 | 5177 ft | 196 kts | 131° |
| 2026-04-22 00:18 | -33.09543 | -60.51346 | 5171 ft | 197 kts | 132° |
| 2026-04-22 00:19 | -33.10422 | -60.50089 | 5160 ft | 198 kts | 134° |
| 2026-04-22 00:19 | -33.11297 | -60.48824 | 5175 ft | 198 kts | 132° |
| 2026-04-22 00:19 | -33.12155 | -60.47524 | 5158 ft | 199 kts | 132° |
| 2026-04-22 00:19 | -33.13196 | -60.46499 | 5109 ft | 194 kts | 159° |
| 2026-04-22 00:20 | -33.14492 | -60.46121 | 5084 ft | 190 kts | 174° |
| 2026-04-22 00:20 | -33.15786 | -60.45805 | 5117 ft | 189 kts | 173° |
| 2026-04-22 00:20 | -33.17086 | -60.45537 | 5075 ft | 189 kts | 175° |
| 2026-04-22 00:20 | -33.18366 | -60.45265 | 5105 ft | 188 kts | 174° |
| 2026-04-22 00:21 | -33.19670 | -60.44964 | 5067 ft | 190 kts | 174° |
| 2026-04-22 00:21 | -33.20879 | -60.44327 | 4978 ft | 201 kts | 141° |
| 2026-04-22 00:21 | -33.21525 | -60.42852 | 4952 ft | 205 kts | 98° |
| 2026-04-22 00:21 | -33.21225 | -60.41224 | 4982 ft | 200 kts | 57° |
| 2026-04-22 00:22 | -33.20190 | -60.40202 | 4979 ft | 193 kts | 15° |
| 2026-04-22 00:22 | -33.18945 | -60.40289 | 5031 ft | 180 kts | 332° |
| 2026-04-22 00:22 | -33.17891 | -60.41072 | 5049 ft | 178 kts | 320° |
| 2026-04-22 00:22 | -33.16945 | -60.42007 | 5064 ft | 177 kts | 311° |
| 2026-04-22 00:23 | -33.16058 | -60.43040 | 5059 ft | 177 kts | 311° |
| 2026-04-22 00:23 | -33.15189 | -60.44065 | 5072 ft | 177 kts | 311° |
| 2026-04-22 00:23 | -33.14317 | -60.45115 | 5057 ft | 178 kts | 309° |
| 2026-04-22 00:23 | -33.13485 | -60.46221 | 5073 ft | 178 kts | 310° |
| 2026-04-22 00:24 | -33.12632 | -60.47274 | 5059 ft | 179 kts | 309° |
| 2026-04-22 00:24 | -33.11814 | -60.48397 | 5050 ft | 179 kts | 306° |
| 2026-04-22 00:24 | -33.11030 | -60.49546 | 5056 ft | 178 kts | 307° |
| 2026-04-22 00:24 | -33.10233 | -60.50668 | 5040 ft | 179 kts | 306° |
| 2026-04-22 00:25 | -33.09437 | -60.51806 | 5055 ft | 178 kts | 306° |
| 2026-04-22 00:25 | -33.08647 | -60.52958 | 5027 ft | 180 kts | 305° |
| 2026-04-22 00:25 | -33.07875 | -60.54122 | 5025 ft | 180 kts | 306° |
| 2026-04-22 00:25 | -33.07069 | -60.55255 | 5055 ft | 178 kts | 307° |
| 2026-04-22 00:26 | -33.06312 | -60.56419 | 5025 ft | 180 kts | 304° |
| 2026-04-22 00:26 | -33.05536 | -60.57575 | 5051 ft | 178 kts | 306° |
| 2026-04-22 00:26 | -33.04569 | -60.58526 | 4996 ft | 186 kts | 332° |
| 2026-04-22 00:26 | -33.03254 | -60.58762 | 4868 ft | 198 kts | 6° |
| 2026-04-22 00:27 | -33.02010 | -60.58004 | 4741 ft | 205 kts | 38° |
| 2026-04-22 00:27 | -33.01002 | -60.56773 | 4466 ft | 214 kts | 47° |
| 2026-04-22 00:27 | -32.99940 | -60.55511 | 4169 ft | 218 kts | 40° |
| 2026-04-22 00:27 | -32.98769 | -60.54403 | 3837 ft | 213 kts | 31° |
| 2026-04-22 00:28 | -32.97414 | -60.53705 | 3321 ft | 217 kts | 13° |
| 2026-04-22 00:28 | -32.95952 | -60.53306 | 2997 ft | 211 kts | 9° |
| 2026-04-22 00:28 | -32.94553 | -60.53220 | 2961 ft | 197 kts | 356° |
| 2026-04-22 00:28 | -32.93187 | -60.53284 | 2878 ft | 194 kts | 354° |
| 2026-04-22 00:29 | -32.91867 | -60.53406 | 2897 ft | 191 kts | 350° |
| 2026-04-22 00:29 | -32.90589 | -60.53765 | 2921 ft | 186 kts | 341° |
| 2026-04-22 00:29 | -32.89335 | -60.54189 | 2887 ft | 187 kts | 342° |
| 2026-04-22 00:29 | -32.88048 | -60.54497 | 2840 ft | 190 kts | 347° |
| 2026-04-22 00:30 | -32.86767 | -60.54764 | 2867 ft | 187 kts | 348° |
| 2026-04-22 00:30 | -32.85487 | -60.54996 | 2924 ft | 185 kts | 349° |
| 2026-04-22 00:30 | -32.84198 | -60.55174 | 2950 ft | 185 kts | 350° |
| 2026-04-22 00:30 | -32.82960 | -60.55528 | 2950 ft | 184 kts | 335° |
| 2026-04-22 00:31 | -32.81847 | -60.56273 | 2936 ft | 182 kts | 317° |
| 2026-04-22 00:31 | -32.80883 | -60.57214 | 2946 ft | 181 kts | 317° |
| 2026-04-22 00:31 | -32.79912 | -60.58175 | 2945 ft | 181 kts | 316° |
| 2026-04-22 00:31 | -32.78988 | -60.59178 | 2960 ft | 179 kts | 313° |
| 2026-04-22 00:32 | -32.78111 | -60.60201 | 2960 ft | 179 kts | 309° |
| 2026-04-22 00:32 | -32.77517 | -60.60913 | 2962 ft | 180 kts | 311° |
| 2026-04-22 00:32 | -32.76627 | -60.61954 | 2993 ft | 178 kts | 310° |
| 2026-04-22 00:32 | -32.75772 | -60.63017 | 2971 ft | 180 kts | 311° |
| 2026-04-22 00:33 | -32.74890 | -60.64099 | 2919 ft | 182 kts | 306° |
| 2026-04-22 00:33 | -32.74077 | -60.65226 | 2933 ft | 179 kts | 309° |
| 2026-04-22 00:33 | -32.73194 | -60.66248 | 2923 ft | 179 kts | 313° |
| 2026-04-22 00:33 | -32.72313 | -60.67293 | 2918 ft | 178 kts | 310° |
| 2026-04-22 00:34 | -32.71469 | -60.68356 | 2911 ft | 178 kts | 309° |
| 2026-04-22 00:34 | -32.70651 | -60.69445 | 2790 ft | 171 kts | 302° |
| 2026-04-22 00:34 | -32.70093 | -60.70702 | 2357 ft | 173 kts | 287° |
| 2026-04-22 00:34 | -32.69680 | -60.71991 | 2051 ft | 166 kts | 285° |
| 2026-04-22 00:35 | -32.69335 | -60.73274 | 1814 ft | 153 kts | 274° |
| 2026-04-22 00:35 | -32.69640 | -60.74309 | 1716 ft | 130 kts | 213° |
| 2026-04-22 00:35 | -32.70461 | -60.74326 | 1707 ft | 121 kts | 166° |
| 2026-04-22 00:35 | -32.71272 | -60.74129 | 1910 ft | 116 kts | 184° |
| 2026-04-22 00:36 | -32.72089 | -60.74291 | 1991 ft | 123 kts | 194° |
| 2026-04-22 00:36 | -32.72944 | -60.74578 | 2036 ft | 132 kts | 194° |
| 2026-04-22 00:36 | -32.73868 | -60.74714 | 2081 ft | 129 kts | 191° |
| 2026-04-22 00:36 | -32.74721 | -60.74933 | 2116 ft | 124 kts | 193° |
| 2026-04-22 00:37 | -32.75557 | -60.75163 | 2050 ft | 127 kts | 191° |
| 2026-04-22 00:37 | -32.76439 | -60.75300 | 1956 ft | 127 kts | 188° |
| 2026-04-22 00:37 | -32.77289 | -60.75499 | 1931 ft | 124 kts | 197° |
| 2026-04-22 00:37 | -32.78097 | -60.75763 | 1919 ft | 119 kts | 193° |
| 2026-04-22 00:38 | -32.78902 | -60.75946 | 1896 ft | 116 kts | 191° |
| 2026-04-22 00:38 | -32.79692 | -60.76102 | 1882 ft | 115 kts | 190° |
| 2026-04-22 00:38 | -32.80477 | -60.76247 | 1764 ft | 115 kts | 189° |
| 2026-04-22 00:38 | -32.81260 | -60.76388 | 1600 ft | 113 kts | 190° |
| 2026-04-22 00:39 | -32.82037 | -60.76595 | 1394 ft | 112 kts | 195° |
| 2026-04-22 00:39 | -32.82778 | -60.76763 | 1281 ft | 108 kts | 190° |
| 2026-04-22 00:39 | -32.83513 | -60.76924 | 1142 ft | 107 kts | 192° |
| 2026-04-22 00:39 | -32.84238 | -60.77083 | 964 ft | 108 kts | 191° |
| 2026-04-22 00:40 | -32.84991 | -60.77230 | 821 ft | 108 kts | 194° |
| 2026-04-22 00:40 | -32.85730 | -60.77465 | 719 ft | 113 kts | 195° |
| 2026-04-22 00:40 | -32.86510 | -60.77642 | 613 ft | 113 kts | 192° |
| 2026-04-22 00:40 | -32.87290 | -60.77785 | 438 ft | 111 kts | 190° |
| 2026-04-22 00:41 | -32.88016 | -60.77958 | 277 ft | 108 kts | 190° |
| 2026-04-22 00:41 | -32.88748 | -60.78104 | 178 ft | 106 kts | 191° |
| 2026-04-22 00:41 | -32.89474 | -60.78267 | 102 ft | 105 kts | 190° |
| 2026-04-22 00:41 | -32.90125 | -60.78416 | 92 ft | 81 kts | 190° |
| 2026-04-22 00:42 | -32.90582 | -60.78516 | 90 ft | 56 kts | 189° |
| 2026-04-22 00:42 | -32.90884 | -60.78568 | 92 ft | 29 kts | 173° |
| 2026-04-22 00:42 | -32.91049 | -60.78497 | 91 ft | 23 kts | 152° |
| 2026-04-22 00:42 | -32.91169 | -60.78403 | 90 ft | 19 kts | 141° |
| 2026-04-22 00:43 | -32.91262 | -60.78312 | 90 ft | 16 kts | 137° |
| 2026-04-22 00:43 | -32.91341 | -60.78236 | 91 ft | 16 kts | 142° |
| 2026-04-22 00:43 | -32.91445 | -60.78164 | 90 ft | 19 kts | 195° |
| 2026-04-22 00:43 | -32.91566 | -60.78218 | 90 ft | 17 kts | 201° |
| 2026-04-22 00:44 | -32.91662 | -60.78263 | 90 ft | 13 kts | 201° |
| 2026-04-22 00:44 | -32.91736 | -60.78276 | 90 ft | 10 kts | 113° |
| 2026-04-22 00:44 | -32.91802 | -60.78253 | 90 ft | 12 kts | 200° |
| 2026-04-22 00:44 | -32.91840 | -60.78215 | 90 ft | 6 kts | 64° |
| 2026-04-22 00:45 | -32.91820 | -60.78201 | 91 ft | 0 kts | 20° |
| 2026-04-22 00:45 | -32.91814 | -60.78198 | 90 ft | 0 kts | 20° |
| 2026-04-22 01:54 | -32.91787 | -60.78225 | 92 ft | 11 kts | 289° |
| 2026-04-22 01:55 | -32.91722 | -60.78289 | 93 ft | 14 kts | 348° |
| 2026-04-22 01:55 | -32.91620 | -60.78243 | 90 ft | 18 kts | 19° |
| 2026-04-22 01:55 | -32.91489 | -60.78184 | 90 ft | 22 kts | 20° |
| 2026-04-22 01:55 | -32.91380 | -60.78199 | 90 ft | 17 kts | 320° |
| 2026-04-22 01:56 | -32.91283 | -60.78292 | 90 ft | 19 kts | 321° |
| 2026-04-22 01:56 | -32.91173 | -60.78398 | 90 ft | 21 kts | 320° |
| 2026-04-22 01:56 | -32.91057 | -60.78492 | 91 ft | 19 kts | 332° |
| 2026-04-22 01:56 | -32.91026 | -60.78510 | 91 ft | 0 kts | 335° |
| 2026-04-22 01:59 | -32.90983 | -60.78528 | 93 ft | 14 kts | 340° |
| 2026-04-22 01:59 | -32.90847 | -60.78572 | 92 ft | 27 kts | 4° |
| 2026-04-22 01:59 | -32.90620 | -60.78528 | 90 ft | 38 kts | 11° |
| 2026-04-22 02:00 | -32.90346 | -60.78465 | 88 ft | 39 kts | 11° |
| 2026-04-22 02:00 | -32.90098 | -60.78413 | 90 ft | 34 kts | 13° |
| 2026-04-22 02:00 | -32.89879 | -60.78363 | 92 ft | 30 kts | 11° |
| 2026-04-22 02:00 | -32.89682 | -60.78318 | 92 ft | 27 kts | 11° |
| 2026-04-22 02:01 | -32.89483 | -60.78272 | 94 ft | 35 kts | 11° |
| 2026-04-22 02:01 | -32.89255 | -60.78218 | 93 ft | 19 kts | 14° |
| 2026-04-22 02:01 | -32.89221 | -60.78212 | 94 ft | 7 kts | 190° |
| 2026-04-22 02:01 | -32.89226 | -60.78213 | 90 ft | 0 kts | 191° |
| 2026-04-22 02:02 | -32.89240 | -60.78216 | 90 ft | 24 kts | 191° |
| 2026-04-22 02:03 | -32.89779 | -60.78332 | 117 ft | 117 kts | 189° |
| 2026-04-22 02:03 | -32.90658 | -60.78501 | 584 ft | 129 kts | 188° |
| 2026-04-22 02:03 | -32.91507 | -60.78548 | 1423 ft | 117 kts | 180° |
| 2026-04-22 02:03 | -32.92375 | -60.78578 | 1961 ft | 129 kts | 185° |
| 2026-04-22 02:04 | -32.94136 | -60.78471 | 2858 ft | 140 kts | 155° |
| 2026-04-22 02:04 | -32.94810 | -60.77522 | 2979 ft | 163 kts | 114° |
| 2026-04-22 02:04 | -32.95030 | -60.76198 | 3301 ft | 163 kts | 103° |
| 2026-04-22 02:05 | -32.95098 | -60.74863 | 3600 ft | 166 kts | 92° |
| 2026-04-22 02:05 | -32.95060 | -60.73474 | 3876 ft | 169 kts | 86° |
| 2026-04-22 02:05 | -32.95007 | -60.72056 | 4104 ft | 172 kts | 102° |
| 2026-04-22 02:05 | -32.95563 | -60.70818 | 4208 ft | 174 kts | 141° |
| 2026-04-22 02:06 | -32.96522 | -60.69981 | 4529 ft | 168 kts | 148° |
| 2026-04-22 02:06 | -32.97495 | -60.69158 | 4688 ft | 176 kts | 148° |
| 2026-04-22 02:06 | -32.98445 | -60.68237 | 4894 ft | 177 kts | 139° |
| 2026-04-22 02:06 | -32.99286 | -60.67106 | 4944 ft | 187 kts | 132° |
| 2026-04-22 02:07 | -33.00128 | -60.65929 | 5011 ft | 190 kts | 134° |
| 2026-04-22 02:07 | -33.00998 | -60.64746 | 5121 ft | 189 kts | 135° |
| 2026-04-22 02:07 | -33.01884 | -60.63543 | 5081 ft | 196 kts | 134° |
| 2026-04-22 02:07 | -33.02789 | -60.62318 | 5102 ft | 196 kts | 136° |
| 2026-04-22 02:08 | -33.03755 | -60.61184 | 5172 ft | 194 kts | 139° |
| 2026-04-22 02:08 | -33.04725 | -60.60047 | 5190 ft | 196 kts | 139° |
| 2026-04-22 02:08 | -33.05654 | -60.58882 | 5226 ft | 197 kts | 133° |
| 2026-04-22 02:08 | -33.06527 | -60.57613 | 5267 ft | 197 kts | 134° |
| 2026-04-22 02:09 | -33.07452 | -60.56404 | 5296 ft | 196 kts | 138° |
| 2026-04-22 02:09 | -33.08350 | -60.55163 | 5277 ft | 199 kts | 133° |
| 2026-04-22 02:09 | -33.09294 | -60.53978 | 5279 ft | 199 kts | 139° |
| 2026-04-22 02:09 | -33.10269 | -60.52805 | 5274 ft | 199 kts | 139° |
| 2026-04-22 02:10 | -33.11269 | -60.51654 | 5276 ft | 198 kts | 138° |
| 2026-04-22 02:10 | -33.12189 | -60.50414 | 5278 ft | 200 kts | 135° |
| 2026-04-22 02:10 | -33.13120 | -60.49171 | 5282 ft | 201 kts | 136° |
| 2026-04-22 02:10 | -33.14049 | -60.47941 | 5237 ft | 203 kts | 135° |
| 2026-04-22 02:11 | -33.15080 | -60.46811 | 5179 ft | 199 kts | 157° |
| 2026-04-22 02:11 | -33.16375 | -60.46299 | 5136 ft | 195 kts | 171° |
| 2026-04-22 02:11 | -33.17683 | -60.45948 | 5092 ft | 195 kts | 173° |
| 2026-04-22 02:11 | -33.19010 | -60.45637 | 5038 ft | 194 kts | 174° |
| 2026-04-22 02:12 | -33.20346 | -60.45341 | 4995 ft | 194 kts | 175° |
| 2026-04-22 02:12 | -33.21679 | -60.45053 | 4950 ft | 194 kts | 175° |
| 2026-04-22 02:12 | -33.22546 | -60.44773 | 4913 ft | 199 kts | 159° |
| 2026-04-22 02:12 | -33.23716 | -60.43085 | 4845 ft | 209 kts | 108° |
| 2026-04-22 02:13 | -33.23791 | -60.41936 | 4808 ft | 210 kts | 82° |
| 2026-04-22 02:13 | -33.23193 | -60.40381 | 4756 ft | 206 kts | 44° |
| 2026-04-22 02:13 | -33.21990 | -60.39564 | 4710 ft | 197 kts | 7° |
| 2026-04-22 02:13 | -33.20663 | -60.39353 | 4846 ft | 188 kts | 0° |
| 2026-04-22 02:14 | -33.19370 | -60.39235 | 4965 ft | 184 kts | 358° |
| 2026-04-22 02:14 | -33.18126 | -60.39279 | 5076 ft | 177 kts | 337° |
| 2026-04-22 02:14 | -33.17191 | -60.40131 | 5209 ft | 167 kts | 307° |
| 2026-04-22 02:14 | -33.16467 | -60.41203 | 5272 ft | 170 kts | 304° |
| 2026-04-22 02:15 | -33.15723 | -60.42324 | 5275 ft | 174 kts | 309° |
| 2026-04-22 02:15 | -33.14608 | -60.42953 | 5277 ft | 187 kts | 351° |
| 2026-04-22 02:15 | -33.13303 | -60.42883 | 5283 ft | 191 kts | 0° |
| 2026-04-22 02:15 | -33.11974 | -60.42692 | 5285 ft | 193 kts | 2° |
| 2026-04-22 02:16 | -33.10663 | -60.42778 | 5285 ft | 187 kts | 342° |
| 2026-04-22 02:16 | -33.09410 | -60.43142 | 5289 ft | 187 kts | 340° |
| 2026-04-22 02:16 | -33.08154 | -60.43545 | 5289 ft | 187 kts | 340° |
| 2026-04-22 02:16 | -33.06889 | -60.43943 | 5289 ft | 189 kts | 345° |
| 2026-04-22 02:17 | -33.05558 | -60.43895 | 5290 ft | 193 kts | 1° |
| 2026-04-22 02:17 | -33.04222 | -60.43704 | 5289 ft | 193 kts | 3° |
| 2026-04-22 02:17 | -33.02886 | -60.43485 | 5292 ft | 193 kts | 3° |
| 2026-04-22 02:17 | -33.01553 | -60.43223 | 5276 ft | 195 kts | 6° |
| 2026-04-22 02:18 | -33.00213 | -60.42926 | 5223 ft | 197 kts | 6° |
| 2026-04-22 02:18 | -32.98882 | -60.42620 | 5176 ft | 198 kts | 7° |
| 2026-04-22 02:18 | -32.97535 | -60.42312 | 5130 ft | 197 kts | 5° |
| 2026-04-22 02:18 | -32.96223 | -60.42511 | 5076 ft | 187 kts | 328° |
| 2026-04-22 02:19 | -32.95404 | -60.43635 | 5031 ft | 180 kts | 287° |
| 2026-04-22 02:19 | -32.95197 | -60.45084 | 4988 ft | 179 kts | 274° |
| 2026-04-22 02:19 | -32.95124 | -60.46551 | 5065 ft | 174 kts | 271° |
| 2026-04-22 02:19 | -32.95091 | -60.47973 | 5150 ft | 171 kts | 270° |
| 2026-04-22 02:20 | -32.95072 | -60.49410 | 5103 ft | 176 kts | 270° |
| 2026-04-22 02:20 | -32.95028 | -60.50871 | 5119 ft | 174 kts | 275° |
| 2026-04-22 02:20 | -32.94865 | -60.52268 | 5236 ft | 170 kts | 278° |
| 2026-04-22 02:20 | -32.94655 | -60.53656 | 5277 ft | 172 kts | 281° |
| 2026-04-22 02:21 | -32.94353 | -60.55048 | 5279 ft | 174 kts | 284° |
| 2026-04-22 02:21 | -32.94005 | -60.56435 | 5279 ft | 175 kts | 285° |
| 2026-04-22 02:21 | -32.93637 | -60.57825 | 5283 ft | 176 kts | 285° |
| 2026-04-22 02:21 | -32.93262 | -60.59205 | 5256 ft | 178 kts | 286° |
| 2026-04-22 02:22 | -32.92909 | -60.60635 | 5157 ft | 181 kts | 280° |
| 2026-04-22 02:22 | -32.92730 | -60.62109 | 5063 ft | 182 kts | 276° |
| 2026-04-22 02:22 | -32.92605 | -60.63616 | 4964 ft | 183 kts | 275° |
| 2026-04-22 02:22 | -32.92494 | -60.65133 | 4874 ft | 184 kts | 274° |
| 2026-04-22 02:23 | -32.92368 | -60.66624 | 4763 ft | 184 kts | 276° |
| 2026-04-22 02:23 | -32.92165 | -60.68136 | 4666 ft | 184 kts | 279° |
| 2026-04-22 02:23 | -32.91908 | -60.69637 | 4562 ft | 185 kts | 281° |
| 2026-04-22 02:23 | -32.91640 | -60.71136 | 4458 ft | 185 kts | 280° |
| 2026-04-22 02:24 | -32.91387 | -60.72625 | 4362 ft | 186 kts | 279° |
| 2026-04-22 02:24 | -32.91151 | -60.74135 | 4263 ft | 186 kts | 278° |
| 2026-04-22 02:24 | -32.90916 | -60.75652 | 4160 ft | 186 kts | 279° |
| 2026-04-22 02:24 | -32.90667 | -60.77163 | 4062 ft | 186 kts | 279° |
| 2026-04-22 02:25 | -32.90411 | -60.78678 | 3959 ft | 186 kts | 279° |
| 2026-04-22 02:25 | -32.90155 | -60.80171 | 3860 ft | 186 kts | 279° |
| 2026-04-22 02:25 | -32.89888 | -60.81685 | 3760 ft | 186 kts | 279° |
| 2026-04-22 02:25 | -32.89617 | -60.83195 | 3661 ft | 186 kts | 279° |
| 2026-04-22 02:26 | -32.89341 | -60.84710 | 3559 ft | 187 kts | 279° |
| 2026-04-22 02:26 | -32.89108 | -60.86208 | 3463 ft | 186 kts | 275° |
| 2026-04-22 02:26 | -32.88924 | -60.87740 | 3368 ft | 186 kts | 275° |
| 2026-04-22 02:26 | -32.88709 | -60.89270 | 3264 ft | 187 kts | 277° |
| 2026-04-22 02:27 | -32.88457 | -60.90773 | 3163 ft | 187 kts | 278° |
| 2026-04-22 02:27 | -32.88185 | -60.92294 | 3066 ft | 188 kts | 278° |
| 2026-04-22 02:27 | -32.87925 | -60.93820 | 2963 ft | 188 kts | 277° |
| 2026-04-22 02:27 | -32.87681 | -60.95330 | 2858 ft | 187 kts | 277° |
| 2026-04-22 02:28 | -32.87444 | -60.96857 | 2759 ft | 187 kts | 277° |
| 2026-04-22 02:28 | -32.87193 | -60.98381 | 2652 ft | 188 kts | 281° |
| 2026-04-22 02:28 | -32.86445 | -60.99648 | 2547 ft | 197 kts | 321° |
| 2026-04-22 02:28 | -32.85129 | -61.00125 | 2445 ft | 201 kts | 356° |
| 2026-04-22 02:29 | -32.83727 | -61.00100 | 2345 ft | 202 kts | 1° |
| 2026-04-22 02:29 | -32.82381 | -60.99743 | 2244 ft | 202 kts | 24° |
| 2026-04-22 02:29 | -32.81119 | -60.99006 | 2145 ft | 202 kts | 28° |
| 2026-04-22 02:29 | -32.79887 | -60.98187 | 2040 ft | 203 kts | 31° |
| 2026-04-22 02:30 | -32.78722 | -60.97245 | 1945 ft | 202 kts | 38° |
| 2026-04-22 02:30 | -32.77610 | -60.96224 | 1846 ft | 202 kts | 39° |
| 2026-04-22 02:30 | -32.76592 | -60.95083 | 1754 ft | 199 kts | 48° |
| 2026-04-22 02:30 | -32.75681 | -60.93916 | 1884 ft | 191 kts | 50° |
| 2026-04-22 02:31 | -32.74797 | -60.92753 | 2001 ft | 188 kts | 50° |
| 2026-04-22 02:31 | -32.73996 | -60.91540 | 2120 ft | 185 kts | 57° |
| 2026-04-22 02:31 | -32.73277 | -60.90271 | 2245 ft | 184 kts | 59° |
| 2026-04-22 02:31 | -32.72605 | -60.89001 | 2367 ft | 183 kts | 64° |
| 2026-04-22 02:32 | -32.72049 | -60.87645 | 2498 ft | 182 kts | 69° |
| 2026-04-22 02:32 | -32.71543 | -60.86263 | 2623 ft | 181 kts | 73° |
| 2026-04-22 02:32 | -32.71177 | -60.84830 | 2749 ft | 181 kts | 78° |
| 2026-04-22 02:32 | -32.70879 | -60.83395 | 2875 ft | 181 kts | 80° |
| 2026-04-22 02:33 | -32.70615 | -60.81924 | 3001 ft | 180 kts | 85° |
| 2026-04-22 02:33 | -32.70490 | -60.80444 | 3131 ft | 180 kts | 90° |
| 2026-04-22 02:33 | -32.70449 | -60.78969 | 3259 ft | 180 kts | 91° |
| 2026-04-22 02:33 | -32.70404 | -60.77482 | 3382 ft | 180 kts | 90° |
| 2026-04-22 02:34 | -32.70466 | -60.75996 | 3503 ft | 179 kts | 104° |
| 2026-04-22 02:34 | -32.70894 | -60.74634 | 3625 ft | 178 kts | 118° |
| 2026-04-22 02:34 | -32.71660 | -60.73561 | 3744 ft | 167 kts | 156° |
| 2026-04-22 02:34 | -32.72771 | -60.73298 | 3163 ft | 132 kts | 173° |
| 2026-04-22 02:35 | -32.73456 | -60.73266 | 833 ft | 0 kts | 184° |